Time;durP1;ratioP1;P1;durP2;ratioP2;P2;SDS_P1;SDS_P2;PMS_P1;PMS_P2;Temp;Humidity;BMP_temperature;BMP_pressure;BME280_temperature;BME280_humidity;BME280_pressure;Samples;Min_cycle;Max_cycle;Signal;HPM_P1;HPM_P2
2022/11/23 00:00:24;;;;;;;6.55;3.40;;;7.90;99.90;;;;;;5058968;28;20029;-44
2022/11/23 00:02:56;;;;;;;9.13;3.15;;;7.90;99.90;;;;;;5055555;28;20055;-43
2022/11/23 00:05:22;;;;;;;;;;;7.90;99.90;;;;;;5059612;28;20495;-41
2022/11/23 00:07:48;;;;;;;5.93;3.60;;;7.90;99.90;;;;;;5057511;28;20423;-40
2022/11/23 00:10:14;;;;;;;8.07;4.25;;;7.90;99.90;;;;;;5059858;28;20033;-44
2022/11/23 00:12:39;;;;;;;9.07;3.13;;;7.90;99.90;;;;;;5057147;28;20119;-53
2022/11/23 00:15:05;;;;;;;7.75;3.78;;;7.90;99.90;;;;;;5055457;28;20047;-45
2022/11/23 00:17:31;;;;;;;8.52;3.63;;;7.90;99.90;;;;;;5060785;28;20044;-44
2022/11/23 00:19:57;;;;;;;7.55;3.45;;;7.90;99.90;;;;;;5058683;28;20048;-41
2022/11/23 00:22:23;;;;;;;6.90;2.92;;;7.90;99.90;;;;;;5060050;28;20037;-47
2022/11/23 00:24:49;;;;;;;8.88;4.10;;;7.90;99.90;;;;;;5059347;28;20520;-40
2022/11/23 00:27:14;;;;;;;9.13;3.97;;;8.00;99.90;;;;;;5066123;28;20474;-46
2022/11/23 00:29:40;;;;;;;10.13;3.97;;;7.90;99.90;;;;;;5061701;28;20948;-43
2022/11/23 00:32:06;;;;;;;9.82;4.20;;;7.90;99.90;;;;;;5062787;28;20052;-42
2022/11/23 00:34:31;;;;;;;8.70;4.35;;;7.90;99.90;;;;;;5057704;28;20049;-43
2022/11/23 00:36:57;;;;;;;9.05;4.13;;;7.90;99.90;;;;;;5062003;28;20040;-46
2022/11/23 00:39:22;;;;;;;9.77;4.00;;;7.90;99.90;;;;;;5062541;28;20114;-46
2022/11/23 00:41:48;;;;;;;7.43;3.60;;;7.90;99.90;;;;;;5062673;28;20086;-47
2022/11/23 00:44:14;;;;;;;9.80;3.47;;;7.90;99.90;;;;;;5062605;28;20028;-40
2022/11/23 00:46:40;;;;;;;9.48;4.05;;;7.90;99.90;;;;;;5055824;28;20043;-47
2022/11/23 00:49:05;;;;;;;10.10;4.35;;;7.90;99.90;;;;;;5062234;28;20089;-49
2022/11/23 00:51:34;;;;;;;11.23;4.35;;;7.90;99.90;;;;;;5060351;28;20093;-40
2022/11/23 00:54:01;;;;;;;10.10;4.00;;;7.90;99.90;;;;;;5059903;28;20051;-42
2022/11/23 00:56:28;;;;;;;9.25;4.30;;;7.90;99.90;;;;;;5057188;28;20045;-45
2022/11/23 00:58:55;;;;;;;8.70;3.92;;;7.90;99.90;;;;;;5058126;28;20048;-41
2022/11/23 01:01:23;;;;;;;9.95;4.30;;;7.90;99.90;;;;;;5059612;28;20521;-45
2022/11/23 01:03:52;;;;;;;7.47;3.75;;;7.90;99.90;;;;;;5059259;28;20044;-49
2022/11/23 01:06:21;;;;;;;6.82;3.47;;;7.90;99.90;;;;;;5061855;28;20517;-43
2022/11/23 01:08:49;;;;;;;8.70;4.00;;;7.90;99.90;;;;;;5062621;28;20546;-42
2022/11/23 01:11:15;;;;;;;8.90;3.80;;;7.90;99.90;;;;;;5062365;28;20033;-43
2022/11/23 01:13:41;;;;;;;6.55;3.80;;;7.90;99.90;;;;;;5060198;28;20489;-46
2022/11/23 01:16:16;;;;;;;10.43;4.63;;;7.90;99.90;;;;;;5061533;28;20087;-51
2022/11/23 01:18:42;;;;;;;13.70;5.55;;;7.90;99.90;;;;;;5060378;28;20521;-43
2022/11/23 01:21:07;;;;;;;8.27;4.20;;;7.90;99.90;;;;;;5062559;28;20049;-49
2022/11/23 01:23:33;;;;;;;10.18;4.18;;;7.90;99.90;;;;;;5062853;28;20041;-47
2022/11/23 01:26:09;;;;;;;7.30;3.78;;;7.90;99.90;;;;;;5055702;28;20037;-43
2022/11/23 01:28:37;;;;;;;9.50;3.88;;;7.90;99.90;;;;;;5056768;28;20044;-42
2022/11/23 01:31:11;;;;;;;7.68;4.25;;;7.90;99.90;;;;;;5056548;28;20541;-44
2022/11/23 01:33:37;;;;;;;11.63;4.50;;;7.90;99.90;;;;;;5059946;28;20049;-44
2022/11/23 01:36:15;;;;;;;10.30;4.30;;;7.90;99.90;;;;;;5057532;28;20044;-44
2022/11/23 01:38:42;;;;;;;9.98;4.35;;;7.90;99.90;;;;;;5059347;28;20538;-43
2022/11/23 01:41:11;;;;;;;8.57;4.80;;;7.90;99.90;;;;;;5057626;28;20066;-41
2022/11/23 01:43:37;;;;;;;11.15;4.65;;;7.90;99.90;;;;;;5057773;28;20066;-44
2022/11/23 01:46:03;;;;;;;8.77;4.47;;;7.90;99.90;;;;;;5056877;28;20055;-42
2022/11/23 01:48:45;;;;;;;11.98;4.68;;;7.90;99.90;;;;;;5062448;28;20047;-46
2022/11/23 01:51:18;;;;;;;10.52;4.60;;;7.90;99.90;;;;;;5063083;28;20578;-42
2022/11/23 01:53:46;;;;;;;10.18;4.28;;;7.90;99.90;;;;;;5062970;28;20044;-44
2022/11/23 01:56:16;;;;;;;7.53;4.63;;;7.90;99.90;;;;;;5060540;28;20056;-41
2022/11/23 01:58:46;;;;;;;10.20;5.13;;;8.00;99.90;;;;;;5064155;28;20123;-45
2022/11/23 02:01:12;;;;;;;9.57;4.40;;;8.00;99.90;;;;;;5066452;28;20440;-46
2022/11/23 02:03:39;;;;;;;9.27;4.72;;;7.90;99.90;;;;;;5059272;28;20098;-44
2022/11/23 02:06:10;;;;;;;12.52;5.43;;;7.90;99.90;;;;;;5065245;28;20067;-46
2022/11/23 02:08:36;;;;;;;10.00;5.00;;;7.90;99.90;;;;;;5073728;28;20063;-45
2022/11/23 02:11:02;;;;;;;10.38;5.15;;;7.90;99.90;;;;;;5063936;28;20036;-42
2022/11/23 02:13:28;;;;;;;10.35;5.38;;;7.90;99.90;;;;;;5058829;28;20048;-40
2022/11/23 02:15:56;;;;;;;8.57;4.57;;;7.90;99.90;;;;;;5061426;28;20493;-46
2022/11/23 02:18:25;;;;;;;11.48;5.38;;;7.90;99.90;;;;;;5059895;28;20072;-46
2022/11/23 02:20:52;;;;;;;13.25;6.80;;;7.90;99.90;;;;;;5058925;28;20083;-43
2022/11/23 02:23:18;;;;;;;13.45;5.45;;;8.00;99.90;;;;;;5058998;28;20040;-39
2022/11/23 02:25:44;;;;;;;12.52;6.75;;;8.00;99.90;;;;;;5059136;28;20040;-45
2022/11/23 02:28:16;;;;;;;18.02;6.93;;;8.00;99.90;;;;;;5068611;28;20058;-44
2022/11/23 02:30:44;;;;;;;16.33;6.40;;;8.00;99.90;;;;;;5061613;28;20101;-47
2022/11/23 02:33:10;;;;;;;13.30;6.75;;;8.00;99.90;;;;;;5060408;28;20521;-45
2022/11/23 02:35:51;;;;;;;16.13;7.55;;;8.00;99.90;;;;;;5062510;28;20043;-46
2022/11/23 02:38:18;;;;;;;17.90;7.97;;;8.00;99.90;;;;;;5075573;28;20496;-51
2022/11/23 02:40:44;;;;;;;15.15;7.03;;;8.00;99.90;;;;;;5058797;28;20037;-43
2022/11/23 02:43:09;;;;;;;12.68;7.03;;;8.00;99.90;;;;;;5060151;28;20059;-45
2022/11/23 02:46:00;;;;;;;17.02;7.47;;;8.00;99.90;;;;;;5064909;28;20040;-44
2022/11/23 02:48:25;;;;;;;20.80;7.78;;;8.00;99.90;;;;;;5063295;28;20043;-44
2022/11/23 02:50:51;;;;;;;15.23;6.53;;;8.00;99.90;;;;;;5056559;28;20045;-45
2022/11/23 02:53:17;;;;;;;17.35;8.02;;;8.00;99.90;;;;;;5064342;28;20389;-45
2022/11/23 02:55:43;;;;;;;15.35;7.70;;;8.00;99.90;;;;;;5062829;28;20513;-43
2022/11/23 02:58:09;;;;;;;17.02;7.03;;;8.00;99.90;;;;;;5064961;28;20041;-46
2022/11/23 03:00:35;;;;;;;14.65;7.47;;;8.00;99.90;;;;;;5067343;28;20052;-41
2022/11/23 03:03:01;;;;;;;14.93;7.90;;;8.00;99.90;;;;;;5057670;28;20040;-45
2022/11/23 03:05:27;;;;;;;17.38;7.95;;;8.00;99.90;;;;;;5067890;28;20494;-48
2022/11/23 03:07:53;;;;;;;18.98;7.82;;;8.00;99.90;;;;;;5061632;28;20044;-45
2022/11/23 03:10:19;;;;;;;17.83;8.23;;;8.00;99.90;;;;;;5061799;28;20383;-42
2022/11/23 03:12:45;;;;;;;14.75;7.63;;;8.00;99.90;;;;;;5058283;28;20047;-47
2022/11/23 03:15:10;;;;;;;19.35;8.25;;;8.00;99.90;;;;;;5061443;28;20040;-48
2022/11/23 03:17:36;;;;;;;17.55;7.75;;;8.00;99.90;;;;;;5062848;28;20094;-43
2022/11/23 03:20:03;;;;;;;16.00;8.18;;;7.90;99.90;;;;;;5065056;28;20524;-44
2022/11/23 03:22:28;;;;;;;17.83;8.02;;;7.90;99.90;;;;;;5059000;28;20076;-39
2022/11/23 03:24:55;;;;;;;19.77;8.57;;;7.90;99.90;;;;;;5060740;28;20497;-43
2022/11/23 03:27:20;;;;;;;18.23;8.68;;;7.90;99.90;;;;;;5059736;28;20036;-45
2022/11/23 03:29:46;;;;;;;18.60;8.40;;;7.90;99.90;;;;;;5058906;28;20036;-47
2022/11/23 03:32:12;;;;;;;16.75;8.82;;;7.90;99.90;;;;;;5058066;28;20136;-47
2022/11/23 03:34:37;;;;;;;25.33;10.27;;;7.90;99.90;;;;;;5055032;28;20041;-47
2022/11/23 03:37:03;;;;;;;16.98;8.93;;;7.90;99.90;;;;;;5059705;28;20044;-44
2022/11/23 03:39:29;;;;;;;22.13;10.10;;;7.80;99.90;;;;;;5056975;28;20389;-46
2022/11/23 03:41:55;;;;;;;23.40;10.15;;;7.90;99.90;;;;;;5064309;28;20051;-46
2022/11/23 03:44:20;;;;;;;22.88;10.60;;;7.90;99.90;;;;;;5057828;28;20041;-46
2022/11/23 03:46:46;;;;;;;27.27;11.88;;;7.90;99.90;;;;;;5056383;28;20038;-48
2022/11/23 03:49:12;;;;;;;19.75;10.93;;;7.90;99.90;;;;;;5059340;28;20433;-46
2022/11/23 03:51:37;;;;;;;20.55;10.63;;;7.90;99.90;;;;;;5061073;28;20047;-43
2022/11/23 03:54:03;;;;;;;25.67;10.70;;;7.90;99.90;;;;;;5059437;28;20040;-45
2022/11/23 03:56:29;;;;;;;22.45;10.68;;;7.90;99.90;;;;;;5065504;28;20126;-48
2022/11/23 03:58:55;;;;;;;20.23;8.93;;;7.90;99.90;;;;;;5062831;28;20045;-45
2022/11/23 04:01:20;;;;;;;24.05;10.95;;;7.80;99.90;;;;;;5061166;28;20083;-43
2022/11/23 04:03:46;;;;;;;19.50;9.23;;;7.80;99.90;;;;;;5060533;28;20399;-47
2022/11/23 04:06:12;;;;;;;20.08;10.07;;;7.80;99.90;;;;;;5064506;28;20063;-40
2022/11/23 04:08:37;;;;;;;21.40;10.18;;;7.80;99.90;;;;;;5057777;28;20028;-45
2022/11/23 04:11:03;;;;;;;24.73;11.13;;;7.70;99.90;;;;;;5056897;28;20041;-49
2022/11/23 04:13:29;;;;;;;20.60;10.15;;;7.70;99.90;;;;;;5060289;28;20463;-42
2022/11/23 04:15:54;;;;;;;19.98;10.88;;;7.70;99.90;;;;;;5063903;28;20048;-45
2022/11/23 04:18:20;;;;;;;22.13;10.30;;;7.60;99.90;;;;;;5057805;28;20051;-43
2022/11/23 04:20:46;;;;;;;21.63;9.90;;;7.60;99.90;;;;;;5058938;28;20036;-45
2022/11/23 04:23:11;;;;;;;19.80;9.77;;;7.60;99.90;;;;;;5056466;28;20072;-42
2022/11/23 04:25:37;;;;;;;19.52;10.57;;;7.60;99.90;;;;;;5056233;28;20533;-44
2022/11/23 04:28:02;;;;;;;21.15;10.77;;;7.60;99.90;;;;;;5053878;28;20031;-45
2022/11/23 04:30:28;;;;;;;20.77;10.13;;;7.60;99.90;;;;;;5059888;28;20608;-43
2022/11/23 04:32:54;;;;;;;20.35;10.00;;;7.60;99.90;;;;;;5061548;28;20501;-45
2022/11/23 04:35:21;;;;;;;28.20;11.38;;;7.60;99.90;;;;;;5060291;28;20536;-47
2022/11/23 04:37:47;;;;;;;20.90;9.90;;;7.70;99.90;;;;;;5062474;28;20037;-44
2022/11/23 04:40:13;;;;;;;20.25;10.68;;;7.70;99.90;;;;;;5057337;28;20037;-44
2022/11/23 04:42:38;;;;;;;18.90;10.40;;;7.70;99.90;;;;;;5060889;28;20052;-44
2022/11/23 04:45:04;;;;;;;21.42;10.15;;;7.80;99.90;;;;;;5061708;28;20028;-44
2022/11/23 04:47:31;;;;;;;23.60;10.70;;;7.80;99.90;;;;;;5062396;28;20115;-45
2022/11/23 04:49:56;;;;;;;24.45;11.18;;;7.80;99.90;;;;;;5056984;28;20165;-45
2022/11/23 04:52:22;;;;;;;17.27;9.35;;;7.80;99.90;;;;;;5058188;28;20540;-43
2022/11/23 04:54:48;;;;;;;14.63;8.45;;;7.90;99.90;;;;;;5060731;28;20504;-43
2022/11/23 04:57:13;;;;;;;19.02;8.60;;;7.90;99.90;;;;;;5055901;28;20409;-45
2022/11/23 04:59:39;;;;;;;17.75;7.78;;;7.90;99.90;;;;;;5060554;28;20508;-45
2022/11/23 05:02:05;;;;;;;18.60;8.43;;;7.90;99.90;;;;;;5059022;28;20048;-43
2022/11/23 05:04:33;;;;;;;16.92;8.80;;;7.90;99.90;;;;;;5065316;28;20036;-47
2022/11/23 05:06:58;;;;;;;15.07;7.75;;;7.90;99.90;;;;;;5055647;28;20048;-45
2022/11/23 05:09:24;;;;;;;14.82;7.75;;;7.90;99.90;;;;;;5061299;28;20036;-43
2022/11/23 05:11:50;;;;;;;19.27;8.43;;;7.90;99.90;;;;;;5059854;28;20044;-44
2022/11/23 05:14:15;;;;;;;16.27;7.93;;;7.90;99.90;;;;;;5055680;28;20033;-46
2022/11/23 05:16:41;;;;;;;14.55;7.35;;;7.80;99.90;;;;;;5056001;28;20040;-45
2022/11/23 05:19:07;;;;;;;15.60;7.35;;;7.80;99.90;;;;;;5062709;28;20690;-43
2022/11/23 05:21:32;;;;;;;13.70;6.88;;;7.80;99.90;;;;;;5058999;28;20040;-44
2022/11/23 05:23:58;;;;;;;14.75;6.82;;;7.70;99.90;;;;;;5061471;28;20024;-43
2022/11/23 05:26:24;;;;;;;17.00;7.10;;;7.70;99.90;;;;;;5059306;28;20058;-44
2022/11/23 05:28:49;;;;;;;16.77;6.07;;;7.60;99.90;;;;;;5057222;28;20029;-42
2022/11/23 05:31:16;;;;;;;13.02;6.45;;;7.60;99.90;;;;;;5065371;28;20049;-44
2022/11/23 05:33:41;;;;;;;10.65;5.93;;;7.50;99.90;;;;;;5060992;28;20048;-48
2022/11/23 05:36:08;;;;;;;12.13;5.65;;;7.50;99.90;;;;;;5067135;28;20409;-44
2022/11/23 05:38:34;;;;;;;10.55;5.60;;;7.40;99.90;;;;;;5063527;28;20486;-47
2022/11/23 05:40:59;;;;;;;13.18;5.55;;;7.40;99.90;;;;;;5063621;28;20445;-46
2022/11/23 05:43:25;;;;;;;11.93;5.20;;;7.30;99.90;;;;;;5069687;28;20071;-43
2022/11/23 05:45:51;;;;;;;9.27;4.65;;;7.30;99.90;;;;;;5064745;28;20049;-43
2022/11/23 05:48:17;;;;;;;11.23;4.20;;;7.30;99.90;;;;;;5061991;28;20044;-45
2022/11/23 05:50:42;;;;;;;11.43;4.45;;;7.30;99.90;;;;;;5062520;28;20037;-44
2022/11/23 05:53:08;;;;;;;11.70;4.80;;;7.20;99.90;;;;;;5064849;28;20048;-44
2022/11/23 05:55:34;;;;;;;9.88;4.57;;;7.20;99.90;;;;;;5062269;28;20123;-43
2022/11/23 05:58:00;;;;;;;11.68;4.75;;;7.20;99.90;;;;;;5066221;28;20036;-44
2022/11/23 06:00:26;;;;;;;16.58;3.85;;;7.20;99.90;;;;;;5059852;28;20039;-45
2022/11/23 06:02:51;;;;;;;8.52;3.85;;;7.20;99.90;;;;;;5058078;28;20413;-41
2022/11/23 06:05:17;;;;;;;11.65;4.20;;;7.20;99.90;;;;;;5059115;28;20450;-45
2022/11/23 06:07:42;;;;;;;10.48;3.58;;;7.20;99.90;;;;;;5060660;28;20458;-44
2022/11/23 06:10:10;;;;;;;9.48;3.50;;;7.20;99.90;;;;;;5062345;28;20059;-42
2022/11/23 06:12:35;;;;;;;10.32;3.90;;;7.20;99.90;;;;;;5062137;28;20369;-42
2022/11/23 06:15:01;;;;;;;9.05;2.92;;;7.20;99.90;;;;;;5060047;28;20040;-47
2022/11/23 06:17:27;;;;;;;14.55;4.43;;;7.20;99.90;;;;;;5044251;28;20064;-46
2022/11/23 06:19:52;;;;;;;7.50;3.88;;;7.20;99.90;;;;;;5061144;28;20036;-42
2022/11/23 06:22:18;;;;;;;7.75;3.20;;;7.20;99.90;;;;;;5063410;28;20032;-46
2022/11/23 06:24:44;;;;;;;7.63;3.28;;;7.20;99.90;;;;;;5062747;28;20375;-46
2022/11/23 06:27:09;;;;;;;9.02;3.70;;;7.20;99.90;;;;;;5062430;28;20033;-44
2022/11/23 06:29:35;;;;;;;11.75;4.15;;;7.20;99.90;;;;;;5062550;28;20024;-43
2022/11/23 06:32:01;;;;;;;8.85;3.30;;;7.20;99.90;;;;;;5055248;28;20056;-40
2022/11/23 06:34:26;;;;;;;11.05;3.58;;;7.20;99.90;;;;;;5032114;28;20494;-45
2022/11/23 06:36:53;;;;;;;12.25;3.63;;;7.20;99.90;;;;;;5057066;28;20140;-48
2022/11/23 06:39:18;;;;;;;9.80;3.75;;;7.30;99.90;;;;;;5051702;28;20049;-48
2022/11/23 06:41:44;;;;;;;10.20;3.33;;;7.30;99.90;;;;;;5053668;28;20475;-47
2022/11/23 06:44:10;;;;;;;10.35;3.33;;;7.30;99.90;;;;;;5056013;28;20037;-41
2022/11/23 06:46:35;;;;;;;10.60;2.85;;;7.40;99.90;;;;;;5058365;28;20036;-44
2022/11/23 06:49:01;;;;;;;11.70;3.03;;;7.40;99.90;;;;;;5060605;28;20028;-43
2022/11/23 06:51:27;;;;;;;10.27;3.03;;;7.40;99.90;;;;;;5054138;28;20040;-46
2022/11/23 06:53:52;;;;;;;12.18;3.28;;;7.40;99.90;;;;;;5057163;28;20033;-44
2022/11/23 06:56:18;;;;;;;12.30;2.83;;;7.50;99.90;;;;;;5058294;28;20052;-45
2022/11/23 06:58:44;;;;;;;6.90;3.30;;;7.50;99.90;;;;;;5055395;28;20050;-45
2022/11/23 07:01:09;;;;;;;8.25;3.42;;;7.50;99.90;;;;;;5050941;28;20068;-48
2022/11/23 07:03:35;;;;;;;10.13;2.97;;;7.50;99.90;;;;;;5050097;28;20792;-45
2022/11/23 07:06:05;;;;;;;11.18;3.58;;;7.60;99.90;;;;;;5053056;28;20116;-47
2022/11/23 07:08:31;;;;;;;9.00;3.35;;;7.60;99.90;;;;;;5054096;28;20045;-43
2022/11/23 07:11:05;;;;;;;9.02;3.03;;;7.60;99.90;;;;;;5050377;28;20040;-47
2022/11/23 07:13:32;;;;;;;11.32;3.42;;;7.60;99.90;;;;;;5036384;28;20049;-46
2022/11/23 07:15:58;;;;;;;11.40;2.60;;;7.60;99.90;;;;;;5053357;28;20044;-41
2022/11/23 07:18:24;;;;;;;13.95;3.70;;;7.60;99.90;;;;;;5059320;28;20474;-44
2022/11/23 07:20:50;;;;;;;8.82;2.67;;;7.60;99.90;;;;;;5062062;28;20037;-40
2022/11/23 07:23:15;;;;;;;10.73;3.33;;;7.60;99.90;;;;;;5058654;28;20414;-43
2022/11/23 07:25:44;;;;;;;11.68;2.70;;;7.60;99.90;;;;;;5060229;28;20037;-41
2022/11/23 07:28:11;;;;;;;9.23;2.55;;;7.70;99.90;;;;;;5064567;28;20127;-45
2022/11/23 07:30:37;;;;;;;9.07;2.88;;;7.70;99.90;;;;;;5070675;28;20093;-46
2022/11/23 07:33:07;;;;;;;7.78;2.72;;;7.70;99.90;;;;;;5061147;28;20044;-47
2022/11/23 07:35:33;;;;;;;9.88;3.10;;;7.70;99.90;;;;;;5058519;28;20048;-44
2022/11/23 07:37:59;;;;;;;9.23;2.60;;;7.80;99.90;;;;;;5050217;28;20040;-44
2022/11/23 07:40:25;;;;;;;12.63;3.53;;;7.80;99.90;;;;;;5062068;28;20043;-45
2022/11/23 07:42:51;;;;;;;9.00;2.92;;;7.80;99.90;;;;;;5057807;28;20041;-44
2022/11/23 07:45:17;;;;;;;8.60;3.40;;;7.80;99.90;;;;;;5055030;28;20041;-45
2022/11/23 07:47:43;;;;;;;13.07;4.05;;;7.80;99.90;;;;;;5054946;28;20036;-40
2022/11/23 07:50:11;;;;;;;9.88;3.30;;;7.80;99.90;;;;;;5054489;28;20032;-45
2022/11/23 07:52:37;;;;;;;10.60;2.88;;;7.80;99.90;;;;;;5057813;28;20693;-47
2022/11/23 07:55:04;;;;;;;7.88;2.75;;;7.90;99.90;;;;;;5064497;28;20482;-47
2022/11/23 07:57:30;;;;;;;8.18;2.33;;;7.90;99.90;;;;;;5057942;28;20471;-46
2022/11/23 07:59:56;;;;;;;7.10;2.38;;;7.90;99.90;;;;;;5051679;28;20115;-41
2022/11/23 08:02:22;;;;;;;10.20;2.47;;;7.90;99.90;;;;;;5058672;28;20132;-44
2022/11/23 08:04:48;;;;;;;8.13;2.65;;;7.90;99.90;;;;;;5054412;28;20032;-43
2022/11/23 08:07:14;;;;;;;6.80;2.25;;;7.90;99.90;;;;;;5055057;28;20120;-46
2022/11/23 08:09:39;;;;;;;10.32;2.78;;;7.90;99.90;;;;;;5054824;28;20090;-44
2022/11/23 08:12:05;;;;;;;11.02;2.60;;;8.00;99.90;;;;;;5057226;28;20032;-43
2022/11/23 08:14:31;;;;;;;13.32;3.08;;;8.00;99.90;;;;;;5063479;28;20047;-44
2022/11/23 08:16:56;;;;;;;12.05;3.17;;;8.00;99.90;;;;;;5053978;28;20533;-46
2022/11/23 08:19:22;;;;;;;10.63;3.25;;;8.00;99.90;;;;;;5061596;28;20076;-45
2022/11/23 08:21:48;;;;;;;14.10;4.10;;;8.00;99.90;;;;;;5057679;28;20131;-42
2022/11/23 08:24:13;;;;;;;9.57;3.40;;;8.00;99.90;;;;;;5053228;28;20611;-44
2022/11/23 08:26:39;;;;;;;8.15;2.60;;;7.90;99.90;;;;;;5055700;28;20037;-42
2022/11/23 08:29:05;;;;;;;7.97;2.42;;;7.90;99.90;;;;;;5058308;28;20401;-41
2022/11/23 08:31:31;;;;;;;7.80;2.50;;;7.90;99.90;;;;;;5064051;28;20529;-46
2022/11/23 08:33:57;;;;;;;7.25;2.53;;;7.90;99.90;;;;;;5057811;28;20041;-45
2022/11/23 08:36:23;;;;;;;5.68;1.80;;;7.90;99.90;;;;;;5058943;28;20044;-45
2022/11/23 08:38:50;;;;;;;8.48;2.05;;;7.80;99.90;;;;;;5061706;28;20047;-46
2022/11/23 08:41:19;;;;;;;6.65;2.17;;;7.80;99.90;;;;;;5057463;28;20114;-42
2022/11/23 08:43:46;;;;;;;9.05;1.95;;;7.80;99.90;;;;;;5054660;28;20088;-44
2022/11/23 08:46:12;;;;;;;10.13;2.17;;;7.80;99.90;;;;;;5056301;28;20041;-45
2022/11/23 08:48:37;;;;;;;7.65;2.13;;;7.80;99.90;;;;;;5054241;28;20389;-47
2022/11/23 08:51:03;;;;;;;11.05;2.60;;;7.80;99.90;;;;;;5057548;28;20117;-43
2022/11/23 08:53:29;;;;;;;7.65;2.00;;;7.80;99.90;;;;;;5054851;28;20047;-44
2022/11/23 08:55:55;;;;;;;5.40;2.00;;;7.80;99.90;;;;;;5056106;28;20095;-45
2022/11/23 08:58:24;;;;;;;6.65;2.10;;;7.80;99.90;;;;;;5058640;28;20506;-45
2022/11/23 09:00:49;;;;;;;11.45;2.40;;;7.90;99.90;;;;;;5074430;28;20132;-51
2022/11/23 09:03:15;;;;;;;12.05;2.53;;;7.90;99.90;;;;;;5059761;28;20123;-46
2022/11/23 09:05:40;;;;;;;12.13;2.80;;;7.90;99.90;;;;;;5064595;28;20486;-45
2022/11/23 09:08:07;;;;;;;8.55;2.33;;;8.00;99.90;;;;;;5062530;28;20033;-44
2022/11/23 09:10:33;;;;;;;11.23;2.28;;;8.00;99.90;;;;;;5056531;28;20186;-45
2022/11/23 09:12:59;;;;;;;8.73;2.47;;;8.10;99.90;;;;;;5053407;28;20524;-47
2022/11/23 09:15:25;;;;;;;11.32;2.88;;;8.10;99.90;;;;;;5060141;28;20098;-43
2022/11/23 09:17:50;;;;;;;8.57;1.88;;;8.20;99.90;;;;;;5055029;28;20040;-45
2022/11/23 09:20:16;;;;;;;9.32;1.77;;;8.20;99.90;;;;;;5065239;28;20044;-43
2022/11/23 09:22:42;;;;;;;8.38;2.45;;;8.20;99.90;;;;;;5074715;28;20056;-44
2022/11/23 09:25:09;;;;;;;10.77;1.70;;;8.30;99.90;;;;;;5056162;28;20045;-45
2022/11/23 09:27:35;;;;;;;6.53;1.58;;;8.30;99.90;;;;;;5060092;28;20037;-44
2022/11/23 09:30:01;;;;;;;7.43;1.33;;;8.30;99.90;;;;;;5058315;28;20043;-46
2022/11/23 09:32:27;;;;;;;7.80;1.60;;;8.30;99.90;;;;;;5053422;28;20692;-48
2022/11/23 09:34:52;;;;;;;12.73;1.95;;;8.40;99.90;;;;;;5058820;28;20114;-46
2022/11/23 09:37:18;;;;;;;6.63;1.70;;;8.50;99.90;;;;;;5059461;28;20135;-46
2022/11/23 09:39:43;;;;;;;6.93;1.55;;;8.50;99.90;;;;;;5053403;28;20466;-44
2022/11/23 09:42:17;;;;;;;8.30;1.60;;;8.50;99.90;;;;;;5058837;28;20886;-53
2022/11/23 09:44:52;;;;;;;7.82;1.70;;;8.50;99.90;;;;;;5052518;28;20124;-48
2022/11/23 09:47:52;;;;;;;8.02;1.75;;;8.50;99.90;;;;;;5057255;28;20043;-45
2022/11/23 09:50:48;;;;;;;10.88;2.28;;;8.60;99.90;;;;;;5059126;28;20044;-46
2022/11/23 09:53:21;;;;;;;8.20;1.40;;;8.60;99.90;;;;;;5058514;28;20494;-47
2022/11/23 09:55:50;;;;;;;7.15;1.70;;;8.60;99.90;;;;;;5059319;28;20094;-45
2022/11/23 09:58:21;;;;;;;13.55;1.80;;;8.60;99.90;;;;;;5055136;28;20041;-48
2022/11/23 10:01:02;;;;;;;10.13;2.80;;;8.60;99.90;;;;;;5053822;28;20520;-45
2022/11/23 10:03:30;;;;;;;8.52;2.00;;;8.60;99.90;;;;;;5053494;28;20045;-45
2022/11/23 10:06:12;;;;;;;8.77;1.45;;;8.60;99.90;;;;;;5058086;28;20504;-44
2022/11/23 10:08:54;;;;;;;7.30;1.77;;;8.60;99.90;;;;;;5050622;28;20040;-44
2022/11/23 10:11:26;;;;;;;;;;;8.70;99.90;;;;;;5059128;28;20051;-44
2022/11/23 10:14:22;;;;;;;11.30;1.55;;;8.70;99.90;;;;;;5057366;28;19932;-39
2022/11/23 10:17:06;;;;;;;6.20;2.10;;;8.70;99.90;;;;;;5055056;28;20033;-48
2022/11/23 10:19:46;;;;;;;10.68;1.60;;;8.80;99.90;;;;;;5061547;28;20048;-45
2022/11/23 10:22:41;;;;;;;7.40;1.27;;;8.80;99.90;;;;;;5065434;28;20478;-46
2022/11/23 10:25:16;;;;;;;10.73;1.30;;;8.80;99.90;;;;;;5059286;28;20398;-45
2022/11/23 10:27:44;;;;;;;12.02;1.10;;;8.80;99.90;;;;;;5056558;28;20129;-42
2022/11/23 10:30:15;;;;;;;10.25;1.85;;;8.80;99.90;;;;;;5058390;28;20052;-46
2022/11/23 10:32:44;;;;;;;10.50;1.92;;;8.80;99.90;;;;;;5053876;28;20106;-47
2022/11/23 10:35:38;;;;;;;8.20;1.77;;;8.90;99.90;;;;;;5058088;28;20075;-39
2022/11/23 10:38:15;;;;;;;7.82;1.23;;;8.90;99.90;;;;;;5045016;28;21198;-39
2022/11/23 10:40:58;;;;;;;10.82;1.30;;;9.00;99.90;;;;;;5059267;28;20115;-40
2022/11/23 10:43:28;;;;;;;11.05;1.90;;;9.10;99.90;;;;;;5056557;28;20066;-40
2022/11/23 10:46:27;;;;;;;6.72;1.05;;;9.30;99.90;;;;;;5056618;28;20064;-39
2022/11/23 10:48:53;;;;;;;10.98;1.20;;;9.80;99.90;;;;;;5058602;28;20040;-39
2022/11/23 10:51:32;;;;;;;8.32;2.15;;;10.30;99.90;;;;;;5057582;28;20035;-39
2022/11/23 10:54:01;;;;;;;10.68;1.83;;;10.70;99.90;;;;;;5062341;28;20119;-39
2022/11/23 10:56:28;;;;;;;7.38;1.17;;;11.00;99.90;;;;;;5057671;28;20490;-40
2022/11/23 10:58:54;;;;;;;7.07;1.83;;;11.30;99.90;;;;;;5063654;28;20036;-40
2022/11/23 11:01:23;;;;;;;4.78;1.17;;;11.40;99.90;;;;;;5059705;28;20039;-39
2022/11/23 11:03:53;;;;;;;7.65;1.67;;;11.50;99.90;;;;;;5056968;28;20111;-42
2022/11/23 11:06:31;;;;;;;7.43;1.17;;;11.70;99.90;;;;;;5061574;28;20036;-41
2022/11/23 11:09:02;;;;;;;7.13;1.52;;;11.90;99.90;;;;;;5057052;28;20428;-40
2022/11/23 11:11:30;;;;;;;5.63;1.60;;;12.20;99.90;;;;;;5055011;28;20451;-39
2022/11/23 11:14:12;;;;;;;8.50;1.30;;;12.30;99.90;;;;;;5060593;28;20040;-38
2022/11/23 11:16:49;;;;;;;6.87;1.10;;;12.50;99.90;;;;;;5057861;28;20041;-39
2022/11/23 11:19:21;;;;;;;7.10;1.20;;;12.70;99.90;;;;;;5057398;28;20049;-39
2022/11/23 11:21:47;;;;;;;5.87;0.80;;;12.80;99.90;;;;;;5060786;28;20044;-39
2022/11/23 11:24:21;;;;;;;5.05;0.90;;;13.00;99.90;;;;;;5056974;28;20056;-40
2022/11/23 11:27:02;;;;;;;6.97;1.05;;;13.00;99.90;;;;;;5058163;28;20047;-40
2022/11/23 11:29:42;;;;;;;4.53;0.80;;;13.30;99.90;;;;;;5062249;28;20510;-39
2022/11/23 11:32:13;;;;;;;6.13;0.77;;;13.30;99.90;;;;;;5060689;28;20045;-40
2022/11/23 11:34:48;;;;;;;6.72;1.42;;;13.20;98.70;;;;;;5056530;28;20551;-40
2022/11/23 11:37:31;;;;;;;3.22;0.55;;;13.30;98.70;;;;;;5064995;28;20107;-40
2022/11/23 11:40:08;;;;;;;4.82;0.95;;;13.40;98.70;;;;;;5058520;28;20044;-41
2022/11/23 11:42:45;;;;;;;3.70;0.60;;;13.40;97.50;;;;;;5063276;28;20093;-40
2022/11/23 11:45:33;;;;;;;9.43;1.33;;;13.60;96.80;;;;;;5052978;28;20530;-39
2022/11/23 11:48:09;;;;;;;7.35;1.35;;;13.90;95.30;;;;;;5058992;28;20123;-41
2022/11/23 11:50:52;;;;;;;9.63;1.15;;;14.10;96.40;;;;;;5050169;28;20531;-42
2022/11/23 11:53:23;;;;;;;8.30;0.85;;;14.20;94.50;;;;;;5051608;28;20489;-40
2022/11/23 11:56:03;;;;;;;4.03;1.00;;;14.10;93.20;;;;;;5055040;28;20045;-39
2022/11/23 11:58:32;;;;;;;10.15;1.33;;;14.00;93.50;;;;;;5055808;28;20117;-42
2022/11/23 12:01:07;;;;;;;6.00;1.10;;;14.00;93.30;;;;;;5057498;28;20414;-40
2022/11/23 12:03:49;;;;;;;6.82;0.98;;;14.00;93.60;;;;;;5053331;28;20041;-40
2022/11/23 12:06:24;;;;;;;6.15;1.02;;;14.20;92.60;;;;;;5061077;28;20037;-40
2022/11/23 12:09:06;;;;;;;4.75;0.55;;;14.20;92.10;;;;;;5055388;28;20508;-40
2022/11/23 12:11:32;;;;;;;9.37;1.33;;;14.40;88.20;;;;;;5057603;28;20052;-39
2022/11/23 12:14:03;;;;;;;10.23;0.75;;;14.30;90.30;;;;;;5053805;28;20083;-41
2022/11/23 12:16:43;;;;;;;7.75;0.80;;;14.30;88.50;;;;;;5054543;28;20040;-40
2022/11/23 12:19:32;;;;;;;6.07;0.80;;;14.30;84.10;;;;;;5053830;28;20063;-40
2022/11/23 12:22:20;;;;;;;6.28;0.70;;;14.40;88.70;;;;;;5066524;28;20387;-39
2022/11/23 12:25:10;;;;;;;6.18;1.30;;;14.90;89.00;;;;;;5057972;28;20052;-40
2022/11/23 12:27:57;;;;;;;3.25;0.70;;;15.20;82.90;;;;;;5053729;28;20047;-39
2022/11/23 12:30:41;;;;;;;6.82;1.20;;;15.10;83.80;;;;;;5058476;28;20032;-40
2022/11/23 12:33:37;;;;;;;8.40;0.85;;;15.20;82.90;;;;;;5048362;28;20063;-41
2022/11/23 12:36:05;;;;;;;5.70;0.82;;;15.10;79.50;;;;;;5058439;28;20036;-39
2022/11/23 12:38:53;;;;;;;5.88;0.63;;;14.90;80.70;;;;;;5062190;28;20037;-40
2022/11/23 12:41:38;;;;;;;5.95;0.68;;;15.00;79.40;;;;;;5055686;28;20036;-39
2022/11/23 12:44:13;;;;;;;4.22;0.70;;;15.10;74.00;;;;;;5055687;28;20088;-48
2022/11/23 12:47:16;;;;;;;3.25;0.73;;;15.30;78.40;;;;;;5055697;28;20036;-40
2022/11/23 12:50:02;;;;;;;6.43;0.65;;;15.40;76.90;;;;;;5036647;28;20124;-39
2022/11/23 12:52:41;;;;;;;5.82;0.88;;;15.40;77.30;;;;;;5051372;28;20611;-40
2022/11/23 12:55:28;;;;;;;6.07;0.90;;;15.10;73.80;;;;;;5057060;28;20040;-40
2022/11/23 12:58:09;;;;;;;5.30;0.77;;;15.00;73.20;;;;;;5057948;28;20983;-40
2022/11/23 13:00:40;;;;;;;5.32;0.93;;;14.90;72.90;;;;;;5050354;28;20490;-41